Carnival Dream — 3ETA7 — position and weather

sailwx.info

Track history (hours):
 
Tides and Currents Weather Stations Pressure Air Temp Water Temp Dewpoint Dewpoint Depression Visibility Wind Speed Wind Dir Waves Ship Positions

Carnival Dream

Last reported at 2018-Sep-19 10:00 UTC. Time now 2018-Sep-20 23:52 UTC.
Position N 18°36' W 078°24'.

Length 308 m; draft 8.4 m.

Type: Ship. MMSI: 370490000.

Wind from 140 at 20 knots

Barometer 1012.2 mb
Air temperature 28.0 ° C
Dewpoint 23.7 ° C
Water temperature 30.0 ° C

Date/timePositionNaut miles runAvg speedWind from/ knotsBaromVisibWave heightAir tempDewpointWater temp
2018-Sep-19 10:00N 18°36' W 078°24'28615.9 140 / 201012.2 28.023.730.0
2018-Sep-18 16:00N 20°36' W 083°00'45317.4 140 / 121012.110.8 27.024.127.0
2018-Sep-17 14:00N 26°36' W 088°00'4715.7 250 / 81014.710.8 28.025.228.0
2018-Sep-17 11:00N 27°18' W 088°24'16914.3 280 / 81013.0 28.023.730.0
2018-Sep-16 23:13N 29°44' W 089°60'314.8
2018-Sep-16 23:03N 29°46' W 090°01'115.2
2018-Sep-16 22:59N 29°47' W 090°01'613.0
2018-Sep-16 22:30N 29°53' W 089°57'3 6.6
2018-Sep-16 22:03N 29°55' W 089°55'112.7
2018-Sep-16 21:57N 29°55' W 089°57'512.4
2018-Sep-16 21:30N 29°57' W 090°02'2 2.9
2018-Sep-16 20:58N 29°56' W 090°04'0 0.0
2018-Sep-16 20:25N 29°56' W 090°04'0 0.0
2018-Sep-16 20:01N 29°56' W 090°04'0 0.0
2018-Sep-16 19:52N 29°56' W 090°04'0 0.0
2018-Sep-16 19:28N 29°56' W 090°04'0 0.0
2018-Sep-16 19:01N 29°56' W 090°04'0 0.0
2018-Sep-16 18:55N 29°56' W 090°04'0 0.0
2018-Sep-16 18:25N 29°56' W 090°04'0 0.0
2018-Sep-16 17:52N 29°56' W 090°04'0 0.0
2018-Sep-16 17:25N 29°56' W 090°04'0 0.0
2018-Sep-16 16:55N 29°56' W 090°04'0 0.0
2018-Sep-16 16:25N 29°56' W 090°04'0 0.0
2018-Sep-16 15:55N 29°56' W 090°04'0 0.0
2018-Sep-16 15:10N 29°56' W 090°04'0 0.0
2018-Sep-16 15:01N 29°56' W 090°04'0 0.0
2018-Sep-16 14:59N 29°56' W 090°04'0 0.0
2018-Sep-16 13:52N 29°56' W 090°04'0 0.0
2018-Sep-16 13:30N 29°56' W 090°04'0 0.0
2018-Sep-16 12:56N 29°56' W 090°04'0 0.0
2018-Sep-16 12:28N 29°56' W 090°04'0 0.0
2018-Sep-16 12:01N 29°56' W 090°04'0 0.0
2018-Sep-16 11:55N 29°56' W 090°04'0 0.0
2018-Sep-16 11:28N 29°56' W 090°04'0 0.8
2018-Sep-16 11:03N 29°57' W 090°04'0 7.1
2018-Sep-16 11:00N 29°57' W 090°04'3 5.9
2018-Sep-16 10:30N 29°56' W 090°00'511.1
2018-Sep-16 10:02N 29°54' W 089°55'011.4
2018-Sep-16 10:00N 29°54' W 089°55'4 7.9
2018-Sep-16 09:30N 29°52' W 089°59'714.2
2018-Sep-16 09:01N 29°46' W 090°01'012.6
2018-Sep-16 08:59N 29°45' W 090°01'712.6
2018-Sep-16 08:26N 29°39' W 089°57'34016.7
2018-Sep-15 12:00N 24°30' W 087°18'6 6.0 080 / 91012.910.8 28.023.730.0
2018-Sep-15 11:00N 24°24' W 087°18'18720.7 080 / 101012.710.8 28.023.730.0
2018-Sep-15 02:00N 21°24' W 086°24'5720.4 090 / 171012.6 28.025.228.0
2018-Sep-14 23:12N 20°36' W 086°56'215.3
2018-Sep-14 23:03N 20°34' W 086°57'010.0
2018-Sep-14 23:00N 20°33' W 086°58'4 8.8
2018-Sep-14 22:31N 20°29' W 086°59'1 1.1
2018-Sep-14 22:02N 20°29' W 086°59'0 0.1
2018-Sep-14 21:59N 20°29' W 086°59'0 0.0
2018-Sep-14 21:29N 20°29' W 086°59'0 0.0
2018-Sep-14 21:02N 20°29' W 086°59'0 0.0
2018-Sep-14 20:59N 20°29' W 086°59'0 0.0
2018-Sep-14 20:29N 20°29' W 086°59'0 0.0
2018-Sep-14 20:02N 20°29' W 086°59'0 0.0
2018-Sep-14 19:59N 20°29' W 086°59'0 0.0
2018-Sep-14 19:29N 20°29' W 086°59'0 0.0
2018-Sep-14 19:02N 20°29' W 086°59'0 0.0
2018-Sep-14 18:56N 20°29' W 086°59'0 0.0
2018-Sep-14 18:29N 20°29' W 086°59'0 0.0
2018-Sep-14 18:02N 20°29' W 086°59'0 0.0
2018-Sep-14 17:59N 20°29' W 086°59'0 0.0
2018-Sep-14 17:29N 20°29' W 086°59'0 0.0
2018-Sep-14 17:02N 20°29' W 086°59'0 0.0
2018-Sep-14 16:59N 20°29' W 086°59'0 0.0
2018-Sep-14 16:29N 20°29' W 086°59'0 0.0
2018-Sep-14 16:02N 20°29' W 086°59'0 0.0
2018-Sep-14 15:59N 20°29' W 086°59'0 0.0
2018-Sep-14 15:29N 20°29' W 086°59'0 0.0
2018-Sep-14 15:02N 20°29' W 086°59'0 0.0
2018-Sep-14 14:59N 20°29' W 086°59'0 0.0
2018-Sep-14 14:26N 20°29' W 086°59'0 0.0
2018-Sep-14 13:59N 20°29' W 086°59'0 0.0
2018-Sep-14 13:29N 20°29' W 086°59'0 0.0
2018-Sep-14 13:02N 20°29' W 086°59'0 0.0
2018-Sep-14 12:53N 20°29' W 086°59'0 0.0
2018-Sep-14 12:29N 20°29' W 086°59'0 0.0
2018-Sep-14 12:02N 20°29' W 086°59'0 0.0
2018-Sep-14 11:59N 20°29' W 086°59'0 0.0
2018-Sep-14 11:31N 20°29' W 086°59'3 5.5
2018-Sep-14 11:03N 20°29' W 087°01'0 7.4
2018-Sep-14 11:01N 20°29' W 087°02'713.9
2018-Sep-14 10:30N 20°23' W 087°06'15217.8
2018-Sep-14 02:00N 17°54' W 087°36'41 4.1 100 / 271011.110.8 28.025.228.0
2018-Sep-13 16:00N 17°24' W 088°06'79 6.6 110 / 141013.910.8 29.026.228.0
2018-Sep-13 04:00N 16°30' W 087°06'156 4.1 100 / 171011.210.8 29.026.228.0
2018-Sep-11 14:00N 19°06' W 087°18'19617.8 260 / 121011.910.8 28.025.228.0
2018-Sep-11 03:00N 22°18' W 086°36'5518.4 120 / 251012.310.8 27.024.128.0
2018-Sep-11 00:00N 23°12' W 086°48'21219.3 130 / 351011.8 5.4 26.023.130.0
2018-Sep-10 13:00N 26°30' W 088°12'21615.8 230 / 101013.4 5.4 28.022.130.0
2018-Sep-09 23:16N 29°44' W 090°00'312.4
2018-Sep-09 23:03N 29°47' W 090°01'114.5
2018-Sep-09 23:00N 29°47' W 090°01'612.6
2018-Sep-09 22:30N 29°53' W 089°57'3 5.0
2018-Sep-09 21:58N 29°55' W 089°57'511.5
2018-Sep-09 21:30N 29°57' W 090°02'1 3.1
2018-Sep-09 21:01N 29°56' W 090°04'0 0.0
2018-Sep-09 20:58N 29°56' W 090°04'0 0.0
2018-Sep-09 20:25N 29°56' W 090°04'0 0.0
2018-Sep-09 19:58N 29°56' W 090°04'0 0.0
2018-Sep-09 19:27N 29°56' W 090°04'0 0.0
2018-Sep-09 19:03N 29°56' W 090°04'0 0.0
2018-Sep-09 18:57N 29°56' W 090°04'0 0.0
2018-Sep-09 18:30N 29°56' W 090°04'0 0.0
2018-Sep-09 18:03N 29°56' W 090°04'0 0.0
2018-Sep-09 18:00N 29°56' W 090°04'0 0.0
2018-Sep-09 17:28N 29°56' W 090°04'0 0.0
2018-Sep-09 16:59N 29°56' W 090°04'0 0.0
2018-Sep-09 16:27N 29°56' W 090°04'0 0.0
2018-Sep-09 16:03N 29°56' W 090°04'0 0.0
2018-Sep-09 16:00N 29°56' W 090°04'0 0.0
2018-Sep-09 15:27N 29°56' W 090°04'0 0.0
2018-Sep-09 15:03N 29°56' W 090°04'0 0.0
2018-Sep-09 14:56N 29°56' W 090°04'0 0.0
2018-Sep-09 14:29N 29°56' W 090°04'0 0.0
2018-Sep-09 13:58N 29°56' W 090°04'0 0.0
2018-Sep-09 13:18N 29°56' W 090°04'0 0.0
2018-Sep-09 12:59N 29°56' W 090°04'0 0.0
2018-Sep-09 12:29N 29°56' W 090°04'0 0.0
2018-Sep-09 12:02N 29°56' W 090°04'0 0.0
2018-Sep-09 11:59N 29°56' W 090°04'0 0.0
2018-Sep-09 11:30N 29°56' W 090°04'0 0.1
2018-Sep-09 11:03N 29°56' W 090°04'0 5.4
2018-Sep-09 11:00N 29°57' W 090°04'5 9.7
2018-Sep-09 10:29N 29°55' W 089°58'4 9.4
2018-Sep-09 10:02N 29°53' W 089°54'014.0
2018-Sep-09 10:00N 29°52' W 089°54'  
Track history (hours):
 
Tides and Currents Weather Stations Pressure Air Temp Water Temp Dewpoint Dewpoint Depression Visibility Wind Speed Wind Dir Waves Ship Positions

Carnival Dream

Last reported at 2018-Sep-19 10:00 UTC. Time now 2018-Sep-20 23:52 UTC.
Position N 18°36' W 078°24'.

Length 308 m; draft 8.4 m.

Type: Ship. MMSI: 370490000.

Wind from 140 at 20 knots

Barometer 1012.2 mb
Air temperature 28.0 ° C
Dewpoint 23.7 ° C
Water temperature 30.0 ° C

Date/timePositionNaut miles runAvg speedWind from/ knotsBaromVisibWave heightAir tempDewpointWater temp
2018-Sep-19 10:00N 18°36' W 078°24'28615.9 140 / 201012.2 28.023.730.0
2018-Sep-18 16:00N 20°36' W 083°00'45317.4 140 / 121012.110.8 27.024.127.0
2018-Sep-17 14:00N 26°36' W 088°00'4715.7 250 / 81014.710.8 28.025.228.0
2018-Sep-17 11:00N 27°18' W 088°24'16914.3 280 / 81013.0 28.023.730.0
2018-Sep-16 23:13N 29°44' W 089°60'314.8
2018-Sep-16 23:03N 29°46' W 090°01'115.2
2018-Sep-16 22:59N 29°47' W 090°01'613.0
2018-Sep-16 22:30N 29°53' W 089°57'3 6.6
2018-Sep-16 22:03N 29°55' W 089°55'112.7
2018-Sep-16 21:57N 29°55' W 089°57'512.4
2018-Sep-16 21:30N 29°57' W 090°02'2 2.9
2018-Sep-16 20:58N 29°56' W 090°04'0 0.0
2018-Sep-16 20:25N 29°56' W 090°04'0 0.0
2018-Sep-16 20:01N 29°56' W 090°04'0 0.0
2018-Sep-16 19:52N 29°56' W 090°04'0 0.0
2018-Sep-16 19:28N 29°56' W 090°04'0 0.0
2018-Sep-16 19:01N 29°56' W 090°04'0 0.0
2018-Sep-16 18:55N 29°56' W 090°04'0 0.0
2018-Sep-16 18:25N 29°56' W 090°04'0 0.0
2018-Sep-16 17:52N 29°56' W 090°04'0 0.0
2018-Sep-16 17:25N 29°56' W 090°04'0 0.0
2018-Sep-16 16:55N 29°56' W 090°04'0 0.0
2018-Sep-16 16:25N 29°56' W 090°04'0 0.0
2018-Sep-16 15:55N 29°56' W 090°04'0 0.0
2018-Sep-16 15:10N 29°56' W 090°04'0 0.0
2018-Sep-16 15:01N 29°56' W 090°04'0 0.0
2018-Sep-16 14:59N 29°56' W 090°04'0 0.0
2018-Sep-16 13:52N 29°56' W 090°04'0 0.0
2018-Sep-16 13:30N 29°56' W 090°04'0 0.0
2018-Sep-16 12:56N 29°56' W 090°04'0 0.0
2018-Sep-16 12:28N 29°56' W 090°04'0 0.0
2018-Sep-16 12:01N 29°56' W 090°04'0 0.0
2018-Sep-16 11:55N 29°56' W 090°04'0 0.0
2018-Sep-16 11:28N 29°56' W 090°04'0 0.8
2018-Sep-16 11:03N 29°57' W 090°04'0 7.1
2018-Sep-16 11:00N 29°57' W 090°04'3 5.9
2018-Sep-16 10:30N 29°56' W 090°00'511.1
2018-Sep-16 10:02N 29°54' W 089°55'011.4
2018-Sep-16 10:00N 29°54' W 089°55'4 7.9
2018-Sep-16 09:30N 29°52' W 089°59'714.2
2018-Sep-16 09:01N 29°46' W 090°01'012.6
2018-Sep-16 08:59N 29°45' W 090°01'712.6
2018-Sep-16 08:26N 29°39' W 089°57'34016.7
2018-Sep-15 12:00N 24°30' W 087°18'6 6.0 080 / 91012.910.8 28.023.730.0
2018-Sep-15 11:00N 24°24' W 087°18'18720.7 080 / 101012.710.8 28.023.730.0
2018-Sep-15 02:00N 21°24' W 086°24'5720.4 090 / 171012.6 28.025.228.0
2018-Sep-14 23:12N 20°36' W 086°56'215.3
2018-Sep-14 23:03N 20°34' W 086°57'010.0
2018-Sep-14 23:00N 20°33' W 086°58'4 8.8
2018-Sep-14 22:31N 20°29' W 086°59'1 1.1
2018-Sep-14 22:02N 20°29' W 086°59'0 0.1
2018-Sep-14 21:59N 20°29' W 086°59'0 0.0
2018-Sep-14 21:29N 20°29' W 086°59'0 0.0
2018-Sep-14 21:02N 20°29' W 086°59'0 0.0
2018-Sep-14 20:59N 20°29' W 086°59'0 0.0
2018-Sep-14 20:29N 20°29' W 086°59'0 0.0
2018-Sep-14 20:02N 20°29' W 086°59'0 0.0
2018-Sep-14 19:59N 20°29' W 086°59'0 0.0
2018-Sep-14 19:29N 20°29' W 086°59'0 0.0
2018-Sep-14 19:02N 20°29' W 086°59'0 0.0
2018-Sep-14 18:56N 20°29' W 086°59'0 0.0
2018-Sep-14 18:29N 20°29' W 086°59'0 0.0
2018-Sep-14 18:02N 20°29' W 086°59'0 0.0
2018-Sep-14 17:59N 20°29' W 086°59'0 0.0
2018-Sep-14 17:29N 20°29' W 086°59'0 0.0
2018-Sep-14 17:02N 20°29' W 086°59'0 0.0
2018-Sep-14 16:59N 20°29' W 086°59'0 0.0
2018-Sep-14 16:29N 20°29' W 086°59'0 0.0
2018-Sep-14 16:02N 20°29' W 086°59'0 0.0
2018-Sep-14 15:59N 20°29' W 086°59'0 0.0
2018-Sep-14 15:29N 20°29' W 086°59'0 0.0
2018-Sep-14 15:02N 20°29' W 086°59'0 0.0
2018-Sep-14 14:59N 20°29' W 086°59'0 0.0
2018-Sep-14 14:26N 20°29' W 086°59'0 0.0
2018-Sep-14 13:59N 20°29' W 086°59'0 0.0
2018-Sep-14 13:29N 20°29' W 086°59'0 0.0
2018-Sep-14 13:02N 20°29' W 086°59'0 0.0
2018-Sep-14 12:53N 20°29' W 086°59'0 0.0
2018-Sep-14 12:29N 20°29' W 086°59'0 0.0
2018-Sep-14 12:02N 20°29' W 086°59'0 0.0
2018-Sep-14 11:59N 20°29' W 086°59'0 0.0
2018-Sep-14 11:31N 20°29' W 086°59'3 5.5
2018-Sep-14 11:03N 20°29' W 087°01'0 7.4
2018-Sep-14 11:01N 20°29' W 087°02'713.9
2018-Sep-14 10:30N 20°23' W 087°06'15217.8
2018-Sep-14 02:00N 17°54' W 087°36'41 4.1 100 / 271011.110.8 28.025.228.0
2018-Sep-13 16:00N 17°24' W 088°06'79 6.6 110 / 141013.910.8 29.026.228.0
2018-Sep-13 04:00N 16°30' W 087°06'156 4.1 100 / 171011.210.8 29.026.228.0
2018-Sep-11 14:00N 19°06' W 087°18'19617.8 260 / 121011.910.8 28.025.228.0
2018-Sep-11 03:00N 22°18' W 086°36'5518.4 120 / 251012.310.8 27.024.128.0
2018-Sep-11 00:00N 23°12' W 086°48'21219.3 130 / 351011.8 5.4 26.023.130.0
2018-Sep-10 13:00N 26°30' W 088°12'21615.8 230 / 101013.4 5.4 28.022.130.0
2018-Sep-09 23:16N 29°44' W 090°00'312.4
2018-Sep-09 23:03N 29°47' W 090°01'114.5
2018-Sep-09 23:00N 29°47' W 090°01'612.6
2018-Sep-09 22:30N 29°53' W 089°57'3 5.0
2018-Sep-09 21:58N 29°55' W 089°57'511.5
2018-Sep-09 21:30N 29°57' W 090°02'1 3.1
2018-Sep-09 21:01N 29°56' W 090°04'0 0.0
2018-Sep-09 20:58N 29°56' W 090°04'0 0.0
2018-Sep-09 20:25N 29°56' W 090°04'0 0.0
2018-Sep-09 19:58N 29°56' W 090°04'0 0.0
2018-Sep-09 19:27N 29°56' W 090°04'0 0.0
2018-Sep-09 19:03N 29°56' W 090°04'0 0.0
2018-Sep-09 18:57N 29°56' W 090°04'0 0.0
2018-Sep-09 18:30N 29°56' W 090°04'0 0.0
2018-Sep-09 18:03N 29°56' W 090°04'0 0.0
2018-Sep-09 18:00N 29°56' W 090°04'0 0.0
2018-Sep-09 17:28N 29°56' W 090°04'0 0.0
2018-Sep-09 16:59N 29°56' W 090°04'0 0.0
2018-Sep-09 16:27N 29°56' W 090°04'0 0.0
2018-Sep-09 16:03N 29°56' W 090°04'0 0.0
2018-Sep-09 16:00N 29°56' W 090°04'0 0.0
2018-Sep-09 15:27N 29°56' W 090°04'0 0.0
2018-Sep-09 15:03N 29°56' W 090°04'0 0.0
2018-Sep-09 14:56N 29°56' W 090°04'0 0.0
2018-Sep-09 14:29N 29°56' W 090°04'0 0.0
2018-Sep-09 13:58N 29°56' W 090°04'0 0.0
2018-Sep-09 13:18N 29°56' W 090°04'0 0.0
2018-Sep-09 12:59N 29°56' W 090°04'0 0.0
2018-Sep-09 12:29N 29°56' W 090°04'0 0.0
2018-Sep-09 12:02N 29°56' W 090°04'0 0.0
2018-Sep-09 11:59N 29°56' W 090°04'0 0.0
2018-Sep-09 11:30N 29°56' W 090°04'0 0.1
2018-Sep-09 11:03N 29°56' W 090°04'0 5.4
2018-Sep-09 11:00N 29°57' W 090°04'5 9.7
2018-Sep-09 10:29N 29°55' W 089°58'4 9.4
2018-Sep-09 10:02N 29°53' W 089°54'014.0
2018-Sep-09 10:00N 29°52' W 089°54'  

Dump ship's entire track history